createdAt,value
2022-12-17T00:00:00.683Z,1.1
2022-12-17T00:01:00.790Z,1.1
2022-12-17T00:02:00.662Z,1.1
2022-12-17T00:03:00.768Z,1.1
2022-12-17T00:04:00.800Z,1.1
2022-12-17T00:05:00.690Z,1.1
2022-12-17T00:06:00.700Z,1.1
2022-12-17T00:07:00.661Z,1.1
2022-12-17T00:08:00.660Z,1.1
2022-12-17T00:09:00.665Z,1.1
2022-12-17T00:10:00.701Z,1.1
2022-12-17T00:11:00.677Z,1.1
2022-12-17T00:12:00.672Z,1.1
2022-12-17T00:13:00.684Z,1.1
2022-12-17T00:14:00.670Z,1.1
2022-12-17T00:15:00.698Z,1.1
2022-12-17T00:16:00.983Z,1.1
2022-12-17T00:17:00.697Z,1.1
2022-12-17T00:18:00.674Z,1.1
2022-12-17T00:19:00.671Z,1.1
2022-12-17T00:20:00.712Z,1.1
2022-12-17T00:21:00.694Z,1.1
2022-12-17T00:22:00.713Z,1.1
2022-12-17T00:23:00.695Z,1.1
2022-12-17T00:24:00.689Z,1.1
2022-12-17T00:25:00.742Z,1.1
2022-12-17T00:26:00.679Z,1.1
2022-12-17T00:27:00.696Z,1.1
2022-12-17T00:28:00.688Z,1.1
2022-12-17T00:29:00.726Z,1.1
2022-12-17T00:30:00.724Z,1.1
2022-12-17T00:31:00.750Z,1.1
2022-12-17T00:32:00.699Z,1.1
2022-12-17T00:33:00.686Z,1.1
2022-12-17T00:34:00.697Z,1.1
2022-12-17T00:35:00.711Z,1.1
2022-12-17T00:36:00.713Z,1.1
2022-12-17T00:37:00.699Z,1.1
2022-12-17T00:38:00.718Z,1.1
2022-12-17T00:39:00.689Z,1.1
2022-12-17T00:40:00.728Z,1.1
2022-12-17T00:41:00.732Z,1.1
2022-12-17T00:42:00.697Z,1.1
2022-12-17T00:43:00.691Z,1.1
2022-12-17T00:44:00.708Z,1.1
2022-12-17T00:45:00.722Z,1.1
2022-12-17T00:46:00.718Z,1.1
2022-12-17T00:47:00.862Z,1.1
2022-12-17T00:48:00.697Z,1.1
2022-12-17T00:49:00.716Z,1.1
2022-12-17T00:50:00.755Z,1.1
2022-12-17T00:51:00.735Z,1.1
2022-12-17T00:52:00.706Z,1.1
2022-12-17T00:53:00.703Z,1.1
2022-12-17T00:54:00.720Z,1.1
2022-12-17T00:55:00.749Z,1.1
2022-12-17T00:56:00.705Z,1.1
2022-12-17T00:57:00.725Z,1.1
2022-12-17T00:58:00.725Z,1.1
2022-12-17T00:59:00.728Z,1.1
2022-12-17T01:00:00.770Z,1.1
2022-12-17T01:01:00.797Z,1.1
2022-12-17T01:02:00.878Z,1.1
2022-12-17T01:03:00.815Z,1.1
2022-12-17T01:04:00.751Z,1.1
2022-12-17T01:05:00.752Z,1.1
2022-12-17T01:06:00.756Z,1.1
2022-12-17T01:07:00.735Z,1.1
2022-12-17T01:08:00.727Z,1.1
2022-12-17T01:09:00.732Z,1.1
2022-12-17T01:10:00.750Z,1.1
2022-12-17T01:11:00.724Z,1.1
2022-12-17T01:12:00.739Z,1.1
2022-12-17T01:13:00.729Z,1.1
2022-12-17T01:14:00.741Z,1.1
2022-12-17T01:15:00.744Z,1.1
2022-12-17T01:16:00.796Z,1.1
2022-12-17T01:17:00.746Z,1.1
2022-12-17T01:18:00.730Z,1.1
2022-12-17T01:19:00.731Z,1.1
2022-12-17T01:20:00.773Z,1.1
2022-12-17T01:21:00.747Z,1.1
2022-12-17T01:22:00.778Z,1.1
2022-12-17T01:23:00.775Z,1.1
2022-12-17T01:24:00.755Z,1.1
2022-12-17T01:25:00.768Z,1.1
2022-12-17T01:26:00.758Z,1.1
2022-12-17T01:27:00.782Z,1.1
2022-12-17T01:28:00.742Z,1.1
2022-12-17T01:29:00.766Z,1.1
2022-12-17T01:30:00.816Z,1.1
2022-12-17T01:31:00.762Z,1.1
2022-12-17T01:32:00.814Z,1.1
2022-12-17T01:33:00.777Z,1.1
2022-12-17T01:34:00.750Z,1.1
2022-12-17T01:35:00.778Z,1.1
2022-12-17T01:36:00.782Z,1.1
2022-12-17T01:37:00.786Z,1.1
2022-12-17T01:38:00.771Z,1.1
2022-12-17T01:39:00.759Z,1.1
2022-12-17T01:40:00.869Z,1.1
2022-12-17T01:41:00.772Z,1.1
2022-12-17T01:42:00.761Z,1.1
2022-12-17T01:43:00.779Z,1.1
2022-12-17T01:44:00.782Z,1.1
2022-12-17T01:45:00.765Z,1.1
2022-12-17T01:46:00.910Z,1.1
2022-12-17T01:47:00.767Z,1.1
2022-12-17T01:48:00.787Z,1.1
2022-12-17T01:49:00.776Z,1.1
2022-12-17T01:50:00.819Z,1.1
2022-12-17T01:51:00.799Z,1.1
2022-12-17T01:52:00.781Z,1.1
2022-12-17T01:53:00.779Z,1.1
2022-12-17T01:54:00.790Z,1.1
2022-12-17T01:55:00.803Z,1.1
2022-12-17T01:56:00.774Z,1.1
2022-12-17T01:57:00.787Z,1.1
2022-12-17T01:58:00.791Z,1.1
2022-12-17T01:59:00.793Z,1.1
2022-12-17T02:00:01.176Z,1.1
2022-12-17T02:01:00.862Z,1.1
2022-12-17T02:02:01.025Z,1.1
2022-12-17T02:03:00.966Z,1.1
2022-12-17T02:04:00.816Z,1.1
2022-12-17T02:05:00.815Z,1.1
2022-12-17T02:06:00.808Z,1.1
2022-12-17T02:07:00.858Z,1.1
2022-12-17T02:08:00.810Z,1.1
2022-12-17T02:09:00.844Z,1.1
2022-12-17T02:10:00.903Z,1.1
2022-12-17T02:11:00.823Z,1.1
2022-12-17T02:12:01.244Z,1.1
2022-12-17T02:13:00.793Z,1.1
2022-12-17T02:14:00.829Z,1.1
2022-12-17T02:15:00.812Z,1.1
2022-12-17T02:16:00.847Z,1.1
2022-12-17T02:17:00.800Z,1.1
2022-12-17T02:18:00.806Z,1.1
2022-12-17T02:19:00.819Z,1.1
2022-12-17T02:20:00.831Z,1.1
2022-12-17T02:21:00.798Z,1.1
2022-12-17T02:22:00.801Z,1.1
2022-12-17T02:23:00.800Z,1.1
2022-12-17T02:24:00.823Z,1.1
2022-12-17T02:25:00.826Z,1.1
2022-12-17T02:26:00.815Z,1.1
2022-12-17T02:27:00.805Z,1.1
2022-12-17T02:28:00.810Z,1.1
2022-12-17T02:29:00.838Z,1.1
2022-12-17T02:30:00.880Z,1.1
2022-12-17T02:31:00.807Z,1.1
2022-12-17T02:32:00.895Z,1.1
2022-12-17T02:33:00.809Z,1.1
2022-12-17T02:34:00.845Z,1.1
2022-12-17T02:35:00.829Z,1.1
2022-12-17T02:36:00.826Z,1.1
2022-12-17T02:37:00.829Z,1.1
2022-12-17T02:38:00.824Z,1.1
2022-12-17T02:39:00.843Z,1.1
2022-12-17T02:40:00.883Z,1.1
2022-12-17T02:41:00.818Z,1.1
2022-12-17T02:42:00.837Z,1.1
2022-12-17T02:43:00.817Z,1.1
2022-12-17T02:44:00.838Z,1.1
2022-12-17T02:45:00.865Z,1.1
2022-12-17T02:46:00.873Z,1.1
2022-12-17T02:47:00.822Z,1.1
2022-12-17T02:48:00.828Z,1.1
2022-12-17T02:49:00.866Z,1.1
2022-12-17T02:50:00.863Z,1.1
2022-12-17T02:51:00.805Z,1.1
2022-12-17T02:52:00.796Z,1.1
2022-12-17T02:53:00.754Z,1.1
2022-12-17T02:54:00.770Z,1.1
2022-12-17T02:55:00.721Z,1.1
2022-12-17T02:56:00.695Z,1.1
2022-12-17T02:57:00.634Z,1.1
2022-12-17T02:58:00.605Z,1.1
2022-12-17T02:59:00.575Z,1.1
2022-12-17T03:00:00.628Z,1.1
2022-12-17T03:01:01.079Z,1.1
2022-12-17T03:02:01.306Z,1.1
2022-12-17T03:03:01.065Z,1.1
2022-12-17T03:04:00.993Z,1.1
2022-12-17T03:05:21.113Z,1.1
2022-12-17T03:06:01.012Z,1.1
2022-12-17T03:07:01.013Z,1.1
2022-12-17T03:08:01.011Z,1.1
2022-12-17T03:09:01.011Z,1.1
2022-12-17T03:10:01.031Z,1.1
2022-12-17T03:11:01.042Z,1.1
2022-12-17T03:12:01.013Z,1.1
2022-12-17T03:13:01.033Z,1.1
2022-12-17T03:14:01.004Z,1.1
2022-12-17T03:15:01.030Z,1.1
2022-12-17T03:16:01.017Z,1.1
2022-12-17T03:17:01.055Z,1.1
2022-12-17T03:18:01.017Z,1.1
2022-12-17T03:19:01.008Z,1.1
2022-12-17T03:20:01.056Z,1.1
2022-12-17T03:21:01.031Z,1.1
2022-12-17T03:22:01.032Z,1.1
2022-12-17T03:23:01.015Z,1.1
2022-12-17T03:24:01.011Z,1.1
2022-12-17T03:25:01.031Z,1.1
2022-12-17T03:26:01.031Z,1.1
2022-12-17T03:27:01.016Z,1.1
2022-12-17T03:28:01.017Z,1.1
2022-12-17T03:29:01.018Z,1.1
2022-12-17T03:30:01.247Z,1.1
2022-12-17T03:31:01.075Z,1.1
2022-12-17T03:32:01.020Z,1.1
2022-12-17T03:33:01.054Z,1.1
2022-12-17T03:34:01.026Z,1.1
2022-12-17T03:35:01.032Z,1.1
2022-12-17T03:36:01.065Z,1.1
2022-12-17T03:37:01.078Z,1.1
2022-12-17T03:38:01.045Z,1.1
2022-12-17T03:39:01.080Z,1.1
2022-12-17T03:40:01.183Z,1.1
2022-12-17T03:41:01.052Z,1.1
2022-12-17T03:42:01.034Z,1.1
2022-12-17T03:43:01.043Z,1.1
2022-12-17T03:44:01.057Z,1.1
2022-12-17T03:45:01.043Z,1.1
2022-12-17T03:46:01.086Z,1.1
2022-12-17T03:47:01.036Z,1.1
2022-12-17T03:48:01.037Z,1.1
2022-12-17T03:49:01.044Z,1.1
2022-12-17T03:50:01.266Z,1.1
2022-12-17T03:51:01.071Z,1.1
2022-12-17T03:52:01.122Z,1.1
2022-12-17T03:53:01.054Z,1.1
2022-12-17T03:54:01.045Z,1.1
2022-12-17T03:55:01.171Z,1.1
2022-12-17T03:56:01.118Z,1.1
2022-12-17T03:57:01.115Z,1.1
2022-12-17T03:58:01.117Z,1.1
2022-12-17T03:59:01.053Z,1.1
2022-12-17T04:00:01.257Z,1.1
2022-12-17T04:01:01.118Z,1.1
2022-12-17T04:02:01.140Z,1.1
2022-12-17T04:03:01.164Z,1.1
2022-12-17T04:04:01.059Z,1.1
2022-12-17T04:05:01.077Z,1.1
2022-12-17T04:06:01.136Z,1.1
2022-12-17T04:07:01.070Z,1.1
2022-12-17T04:08:01.160Z,1.1
2022-12-17T04:09:01.157Z,1.1
2022-12-17T04:10:01.139Z,1.1
2022-12-17T04:11:01.088Z,1.1
2022-12-17T04:12:01.079Z,1.1
2022-12-17T04:13:01.071Z,1.1
2022-12-17T04:14:01.062Z,1.1
2022-12-17T04:15:01.336Z,1.1
2022-12-17T04:16:01.159Z,1.1
2022-12-17T04:17:01.131Z,1.1
2022-12-17T04:18:01.099Z,1.1
2022-12-17T04:19:01.085Z,1.1
2022-12-17T04:20:01.164Z,1.1
2022-12-17T04:21:01.134Z,1.1
2022-12-17T04:22:01.220Z,1.1
2022-12-17T04:23:01.179Z,1.1
2022-12-17T04:24:01.109Z,1.1
2022-12-17T04:25:01.196Z,1.1
2022-12-17T04:26:01.154Z,1.1
2022-12-17T04:27:01.222Z,1.1
2022-12-17T04:28:01.146Z,1.1
2022-12-17T04:29:01.154Z,1.1
2022-12-17T04:30:01.308Z,1.1
2022-12-17T04:31:01.223Z,1.1
2022-12-17T04:32:01.178Z,1.1
2022-12-17T04:33:01.162Z,1.1
2022-12-17T04:34:01.164Z,1.1
2022-12-17T04:35:01.267Z,1.1
2022-12-17T04:36:01.299Z,1.1
2022-12-17T04:37:01.301Z,1.1
2022-12-17T04:38:01.274Z,1.1
2022-12-17T04:39:01.197Z,1.1
2022-12-17T04:40:01.168Z,1.1
2022-12-17T04:41:02.161Z,1.1
2022-12-17T04:42:01.210Z,1.1
2022-12-17T04:43:01.373Z,1.1
2022-12-17T04:44:03.151Z,1.1
2022-12-17T04:45:01.365Z,1.1
2022-12-17T04:46:01.365Z,1.1
2022-12-17T04:47:01.218Z,1.1
2022-12-17T04:48:01.232Z,1.1
2022-12-17T04:49:01.254Z,1.1
2022-12-17T04:50:01.185Z,1.1
2022-12-17T04:51:01.248Z,1.1
2022-12-17T04:52:01.199Z,1.1
2022-12-17T04:53:01.152Z,1.1
2022-12-17T04:54:01.108Z,1.1
2022-12-17T04:55:01.203Z,1.1
2022-12-17T04:56:01.253Z,1.1
2022-12-17T04:57:01.124Z,1.1
2022-12-17T04:58:01.205Z,1.1
2022-12-17T04:59:01.125Z,1.1
2022-12-17T05:00:01.144Z,1.1
2022-12-17T05:01:01.247Z,1.1
2022-12-17T05:02:01.289Z,1.1
2022-12-17T05:03:01.319Z,1.1
2022-12-17T05:04:01.207Z,1.1
2022-12-17T05:05:01.136Z,1.1
2022-12-17T05:06:01.152Z,1.1
2022-12-17T05:07:01.205Z,1.1
2022-12-17T05:08:01.135Z,1.1
2022-12-17T05:09:01.119Z,1.1
2022-12-17T05:10:01.175Z,1.1
2022-12-17T05:11:01.145Z,1.1
2022-12-17T05:12:01.130Z,1.1
2022-12-17T05:13:01.168Z,1.1
2022-12-17T05:14:01.127Z,1.1
2022-12-17T05:15:01.140Z,1.1
2022-12-17T05:16:01.202Z,1.1
2022-12-17T05:17:01.131Z,1.1
2022-12-17T05:18:01.148Z,1.1
2022-12-17T05:19:01.158Z,1.1
2022-12-17T05:20:01.184Z,1.1
2022-12-17T05:21:01.206Z,1.1
2022-12-17T05:22:01.172Z,1.1
2022-12-17T05:23:01.134Z,1.1
2022-12-17T05:24:01.147Z,1.1
2022-12-17T05:25:01.173Z,1.1
2022-12-17T05:26:01.174Z,1.1
2022-12-17T05:27:01.179Z,1.1
2022-12-17T05:28:01.172Z,1.1
2022-12-17T05:29:01.163Z,1.1
2022-12-17T05:30:01.167Z,1.1
2022-12-17T05:31:01.246Z,1.1
2022-12-17T05:32:01.193Z,1.1
2022-12-17T05:33:01.171Z,1.1
2022-12-17T05:34:01.184Z,1.1
2022-12-17T05:35:01.328Z,1.1
2022-12-17T05:36:01.218Z,1.1
2022-12-17T05:37:01.195Z,1.1
2022-12-17T05:38:01.154Z,1.1
2022-12-17T05:39:01.186Z,1.1
2022-12-17T05:40:01.191Z,1.1
2022-12-17T05:41:01.158Z,1.1
2022-12-17T05:42:01.162Z,1.1
2022-12-17T05:43:01.159Z,1.1
2022-12-17T05:44:01.217Z,1.1
2022-12-17T05:45:01.301Z,1.1
2022-12-17T05:46:01.323Z,1.1
2022-12-17T05:47:01.256Z,1.1
2022-12-17T05:48:01.186Z,1.1
2022-12-17T05:49:01.220Z,1.1
2022-12-17T05:50:01.406Z,1.1
2022-12-17T05:51:01.190Z,1.1
2022-12-17T05:52:01.180Z,1.1
2022-12-17T05:53:01.170Z,1.1
2022-12-17T05:54:01.202Z,1.1
2022-12-17T05:55:01.173Z,1.1
2022-12-17T05:56:01.178Z,1.1
2022-12-17T05:57:01.187Z,1.1
2022-12-17T05:58:01.219Z,1.1
2022-12-17T05:59:01.226Z,1.1
2022-12-17T06:00:01.204Z,1.1
2022-12-17T06:01:01.183Z,1.1
2022-12-17T06:02:01.270Z,1.1
2022-12-17T06:03:01.435Z,1.1
2022-12-17T06:04:01.269Z,1.1
2022-12-17T06:05:02.596Z,1.1
2022-12-17T06:06:01.222Z,1.1
2022-12-17T06:07:01.183Z,1.1
2022-12-17T06:08:01.213Z,1.1
2022-12-17T06:09:01.208Z,1.1
2022-12-17T06:10:01.203Z,1.1
2022-12-17T06:11:01.185Z,1.1
2022-12-17T06:12:02.984Z,1.1
2022-12-17T06:13:01.224Z,1.1
2022-12-17T06:14:01.198Z,1.1
2022-12-17T06:15:01.192Z,1.1
2022-12-17T06:16:01.245Z,1.1
2022-12-17T06:17:01.190Z,1.1
2022-12-17T06:18:01.212Z,1.1
2022-12-17T06:19:01.208Z,1.1
2022-12-17T06:20:01.242Z,1.1
2022-12-17T06:21:01.209Z,1.1
2022-12-17T06:22:01.201Z,1.1
2022-12-17T06:23:01.214Z,1.1
2022-12-17T06:24:01.220Z,1.1
2022-12-17T06:25:01.207Z,1.1
2022-12-17T06:26:01.224Z,1.1
2022-12-17T06:27:01.207Z,1.1
2022-12-17T06:28:01.209Z,1.1
2022-12-17T06:29:01.225Z,1.1
2022-12-17T06:30:01.350Z,1.1
2022-12-17T06:31:01.288Z,1.1
2022-12-17T06:32:01.208Z,1.1
2022-12-17T06:33:01.205Z,1.1
2022-12-17T06:34:01.253Z,1.1
2022-12-17T06:35:01.229Z,1.2
2022-12-17T06:36:01.237Z,1.4
2022-12-17T06:37:01.255Z,1.6
2022-12-17T06:38:01.210Z,2
2022-12-17T06:39:01.219Z,2.3
2022-12-17T06:40:01.212Z,2.8
2022-12-17T06:41:01.229Z,3.3
2022-12-17T06:42:04.263Z,4
2022-12-17T06:43:01.229Z,4.7
2022-12-17T06:44:01.216Z,5.7
2022-12-17T06:45:01.231Z,6.8
2022-12-17T06:46:01.218Z,8
2022-12-17T06:47:01.256Z,9.5
2022-12-17T06:48:01.301Z,11.2
2022-12-17T06:49:01.240Z,13.2
2022-12-17T06:50:01.858Z,15.7
2022-12-17T06:51:01.264Z,18.1
2022-12-17T06:52:01.253Z,21.1
2022-12-17T06:53:01.226Z,24.7
2022-12-17T06:54:01.235Z,28.5
2022-12-17T06:55:01.231Z,32.9
2022-12-17T06:56:01.251Z,37.5
2022-12-17T06:57:01.246Z,43.3
2022-12-17T06:58:01.225Z,48.7
2022-12-17T06:59:01.229Z,55.6
2022-12-17T07:00:01.254Z,61.9
2022-12-17T07:01:01.370Z,69.8
2022-12-17T07:02:01.429Z,77.7
2022-12-17T07:03:01.263Z,86.5
2022-12-17T07:04:01.251Z,96.4
2022-12-17T07:05:01.267Z,106
2022-12-17T07:06:01.276Z,116.7
2022-12-17T07:07:01.241Z,128.4
2022-12-17T07:08:01.238Z,141.3
2022-12-17T07:09:01.250Z,153.6
2022-12-17T07:10:01.268Z,169.1
2022-12-17T07:11:01.258Z,181.6
2022-12-17T07:12:01.322Z,197.5
2022-12-17T07:13:01.269Z,212.2
2022-12-17T07:14:01.268Z,228
2022-12-17T07:15:01.269Z,244.9
2022-12-17T07:16:01.357Z,263.2
2022-12-17T07:17:01.265Z,276.1
2022-12-17T07:18:01.251Z,296.6
2022-12-17T07:19:01.253Z,311.1
2022-12-17T07:20:01.273Z,334.3
2022-12-17T07:21:01.293Z,350.6
2022-12-17T07:22:01.255Z,367.8
2022-12-17T07:23:01.256Z,385.9
2022-12-17T07:24:01.271Z,404.8
2022-12-17T07:25:01.296Z,424.6
2022-12-17T07:26:01.273Z,440.1
2022-12-17T07:27:01.260Z,461.7
2022-12-17T07:28:01.256Z,478.5
2022-12-17T07:29:01.257Z,496
2022-12-17T07:30:01.291Z,520.3
2022-12-17T07:31:01.289Z,539.3
2022-12-17T07:32:01.356Z,559
2022-12-17T07:33:01.270Z,579.4
2022-12-17T07:34:01.297Z,593.4
2022-12-17T07:35:01.282Z,622.5
2022-12-17T07:36:01.281Z,637.6
2022-12-17T07:37:01.292Z,653
2022-12-17T07:38:01.269Z,676.9
2022-12-17T07:39:01.315Z,701.6
2022-12-17T07:40:01.289Z,718.6
2022-12-17T07:41:01.293Z,736
2022-12-17T07:42:01.285Z,753.8
2022-12-17T07:43:01.288Z,772.1
2022-12-17T07:44:01.304Z,790.8
2022-12-17T07:45:01.288Z,819.6
2022-12-17T07:46:01.401Z,829.5
2022-12-17T07:47:01.289Z,859.8
2022-12-17T07:48:01.293Z,870.2
2022-12-17T07:49:01.305Z,901.9
2022-12-17T07:50:01.308Z,923.7
2022-12-17T07:51:01.299Z,946.1
2022-12-17T07:52:01.292Z,969
2022-12-17T07:53:01.306Z,992.5
2022-12-17T07:54:01.307Z,1028.7
2022-12-17T07:55:01.293Z,1053.6
2022-12-17T07:56:01.303Z,1079.1
2022-12-17T07:57:01.297Z,1105.3
2022-12-17T07:58:01.306Z,1132
2022-12-17T07:59:01.322Z,1159.4
2022-12-17T08:00:01.296Z,1187.5
2022-12-17T08:01:01.358Z,1201.7
2022-12-17T08:02:01.686Z,1245.7
2022-12-17T08:03:01.485Z,1275.8
2022-12-17T08:04:01.318Z,1291.2
2022-12-17T08:05:01.324Z,1338.3
2022-12-17T08:06:01.313Z,1370.7
2022-12-17T08:07:06.939Z,1403.9
2022-12-17T08:08:01.298Z,1403.9
2022-12-17T08:09:01.343Z,1437.9
2022-12-17T08:10:01.336Z,1455.2
2022-12-17T08:11:01.326Z,1472.7
2022-12-17T08:12:01.304Z,1472.7
2022-12-17T08:13:01.305Z,1472.7
2022-12-17T08:15:01.346Z,1472.7
2022-12-17T08:16:01.313Z,1472.7
2022-12-17T08:17:01.451Z,1508.3
2022-12-17T08:18:01.316Z,1544.8
2022-12-17T08:19:01.327Z,1563.4
2022-12-17T08:20:01.361Z,1582.3
2022-12-17T08:21:01.330Z,1601.3
2022-12-17T08:22:01.319Z,1620.5
2022-12-17T08:23:01.319Z,1620.5
2022-12-17T08:24:01.324Z,1620.5
2022-12-17T08:25:01.353Z,1620.5
2022-12-17T08:26:01.345Z,1620.5
2022-12-17T08:27:01.372Z,1620.5
2022-12-17T08:28:04.591Z,1659.7
2022-12-17T08:29:01.336Z,1679.7
2022-12-17T08:30:01.370Z,1720.4
2022-12-17T08:31:01.372Z,1762
2022-12-17T08:32:01.324Z,1826.4
2022-12-17T08:33:01.343Z,1893.1
2022-12-17T08:34:06.219Z,2108.2
2022-12-17T08:35:01.368Z,2159.2
2022-12-17T08:36:01.337Z,2058.4
2022-12-17T08:37:01.334Z,2034
2022-12-17T08:38:01.334Z,1915.9
2022-12-17T08:39:01.350Z,2009.8
2022-12-17T08:40:01.361Z,2058.4
2022-12-17T08:41:01.334Z,2034
2022-12-17T08:42:04.439Z,2058.4
2022-12-17T08:43:01.350Z,2108.2
2022-12-17T08:44:01.366Z,2133.6
2022-12-17T08:45:01.372Z,2159.2
2022-12-17T08:46:01.369Z,2185.2
2022-12-17T08:47:01.348Z,2211.5
2022-12-17T08:48:04.103Z,2265.1
2022-12-17T08:49:01.361Z,2319.9
2022-12-17T08:50:01.383Z,2347.8
2022-12-17T08:51:01.362Z,2376
2022-12-17T08:52:00.536Z,2433.5
2022-12-17T08:53:00.533Z,2433.5
2022-12-17T08:54:00.584Z,2462.8
2022-12-17T08:55:00.627Z,2462.8
2022-12-17T08:56:00.565Z,2462.8
2022-12-17T08:57:00.539Z,2492.4
2022-12-17T08:58:00.571Z,2462.8
2022-12-17T08:59:00.541Z,2492.4
2022-12-17T09:00:00.559Z,2492.4
2022-12-17T09:01:00.681Z,2492.4
2022-12-17T09:02:00.664Z,2492.4
2022-12-17T09:03:00.670Z,2492.4
2022-12-17T09:04:00.552Z,2462.8
2022-12-17T09:05:00.575Z,2462.8
2022-12-17T09:06:00.570Z,2462.8
2022-12-17T09:07:00.544Z,2462.8
2022-12-17T09:08:00.576Z,2433.5
2022-12-17T09:09:00.563Z,2433.5
2022-12-17T09:10:00.551Z,2433.5
2022-12-17T09:11:00.579Z,2433.5
2022-12-17T09:12:00.559Z,2433.5
2022-12-17T09:13:04.704Z,2404.6
2022-12-17T09:14:00.559Z,2404.6
2022-12-17T09:15:00.561Z,2433.5
2022-12-17T09:16:00.580Z,2404.6
2022-12-17T09:17:00.606Z,2404.6
2022-12-17T09:18:00.570Z,2404.6
2022-12-17T09:19:00.560Z,2404.6
2022-12-17T09:20:00.574Z,2404.6
2022-12-17T09:21:00.588Z,2404.6
2022-12-17T09:22:00.576Z,2376
2022-12-17T09:23:00.590Z,2376
2022-12-17T09:24:00.564Z,2376
2022-12-17T09:25:00.580Z,2376
2022-12-17T09:26:00.589Z,2376
2022-12-17T09:27:00.574Z,2376
2022-12-17T09:28:00.610Z,2347.8
2022-12-17T09:29:00.569Z,2347.8
2022-12-17T09:30:00.618Z,2347.8
2022-12-17T09:31:00.686Z,2319.9
2022-12-17T09:32:00.567Z,2319.9
2022-12-17T09:33:00.567Z,2319.9
2022-12-17T09:34:00.592Z,2319.9
2022-12-17T09:35:00.585Z,2319.9
2022-12-17T09:36:00.593Z,2319.9
2022-12-17T09:37:00.608Z,2319.9
2022-12-17T09:38:00.600Z,2319.9
2022-12-17T09:39:00.616Z,2319.9
2022-12-17T09:40:00.614Z,2319.9
2022-12-17T09:41:00.611Z,2319.9
2022-12-17T09:42:00.592Z,2319.9
2022-12-17T09:43:00.579Z,2319.9
2022-12-17T09:44:00.586Z,2319.9
2022-12-17T09:45:00.583Z,2319.9
2022-12-17T09:46:00.674Z,2319.9
2022-12-17T09:47:00.576Z,2319.9
2022-12-17T09:48:00.836Z,2319.9
2022-12-17T09:49:00.595Z,2347.8
2022-12-17T09:50:00.596Z,2347.8
2022-12-17T09:51:00.617Z,2347.8
2022-12-17T09:52:00.601Z,2347.8
2022-12-17T09:53:00.601Z,2347.8
2022-12-17T09:54:00.590Z,2319.9
2022-12-17T09:55:01.700Z,2347.8
2022-12-17T09:56:00.623Z,2347.8
2022-12-17T09:57:00.586Z,2376
2022-12-17T09:58:00.596Z,2376
2022-12-17T09:59:00.591Z,2347.8
2022-12-17T10:00:00.647Z,2376
2022-12-17T10:01:00.999Z,2376
2022-12-17T10:02:00.798Z,2347.8
2022-12-17T10:03:00.789Z,2376
2022-12-17T10:04:00.671Z,2376
2022-12-17T10:05:00.616Z,2376
2022-12-17T10:06:00.634Z,2376
2022-12-17T10:07:00.615Z,2376
2022-12-17T10:08:00.614Z,2376
2022-12-17T10:09:00.615Z,2376
2022-12-17T10:10:00.610Z,2376
2022-12-17T10:11:00.634Z,2404.6
2022-12-17T10:12:00.602Z,2404.6
2022-12-17T10:13:00.634Z,2404.6
2022-12-17T10:14:00.604Z,2404.6
2022-12-17T10:15:00.620Z,2404.6
2022-12-17T10:16:00.679Z,2404.6
2022-12-17T10:17:00.614Z,2433.5
2022-12-17T10:18:00.634Z,2433.5
2022-12-17T10:19:00.633Z,2433.5
2022-12-17T10:20:00.637Z,2433.5
2022-12-17T10:21:00.624Z,2433.5
2022-12-17T10:22:00.642Z,2433.5
2022-12-17T10:23:00.652Z,2433.5
2022-12-17T10:24:00.636Z,2433.5
2022-12-17T10:25:00.628Z,2462.8
2022-12-17T10:26:00.661Z,2433.5
2022-12-17T10:27:00.616Z,2462.8
2022-12-17T10:28:00.655Z,2462.8
2022-12-17T10:29:00.659Z,2462.8
2022-12-17T10:30:00.625Z,2462.8
2022-12-17T10:31:00.664Z,2462.8
2022-12-17T10:32:00.619Z,2492.4
2022-12-17T10:33:00.653Z,2492.4
2022-12-17T10:34:00.621Z,2492.4
2022-12-17T10:35:05.258Z,2492.4
2022-12-17T10:36:00.624Z,2492.4
2022-12-17T10:37:00.625Z,2492.4
2022-12-17T10:38:00.656Z,2492.4
2022-12-17T10:39:00.644Z,2522.4
2022-12-17T10:40:00.631Z,2492.4
2022-12-17T10:41:00.659Z,2522.4
2022-12-17T10:42:00.635Z,2552.8
2022-12-17T10:43:00.660Z,2552.8
2022-12-17T10:44:00.655Z,2552.8
2022-12-17T10:45:00.644Z,2552.8
2022-12-17T10:46:00.732Z,2552.8
2022-12-17T10:47:00.668Z,2552.8
2022-12-17T10:48:00.656Z,2583.5
2022-12-17T10:49:00.673Z,2583.5
2022-12-17T10:50:00.639Z,2614.6
2022-12-17T10:51:00.658Z,2614.6
2022-12-17T10:52:00.640Z,2614.6
2022-12-17T10:53:00.659Z,2646
2022-12-17T10:54:00.642Z,2646
2022-12-17T10:55:00.652Z,2646
2022-12-17T10:56:00.666Z,2677.9
2022-12-17T10:57:01.454Z,2677.9
2022-12-17T10:58:00.661Z,2677.9
2022-12-17T10:59:00.674Z,2677.9
2022-12-17T11:00:00.793Z,2710.1
2022-12-17T11:01:00.690Z,2742.6
2022-12-17T11:02:00.898Z,2742.6
2022-12-17T11:03:00.959Z,2742.6
2022-12-17T11:04:00.727Z,2742.6
2022-12-17T11:05:00.663Z,2775.6
2022-12-17T11:06:00.681Z,2809
2022-12-17T11:07:00.662Z,2809
2022-12-17T11:08:00.659Z,2809
2022-12-17T11:09:00.797Z,2842.8
2022-12-17T11:10:07.027Z,2842.8
2022-12-17T11:11:00.734Z,2877.1
2022-12-17T11:12:04.226Z,2877.1
2022-12-17T11:13:00.679Z,2877.1
2022-12-17T11:14:00.772Z,2946.7
2022-12-17T11:15:00.793Z,2946.7
2022-12-17T11:16:00.841Z,2946.7
2022-12-17T11:17:00.673Z,2946.7
2022-12-17T11:18:00.666Z,2982.2
2022-12-17T11:19:00.787Z,2982.2
2022-12-17T11:20:00.673Z,3018
2022-12-17T11:21:00.698Z,2982.2
2022-12-17T11:22:00.688Z,3018
2022-12-17T11:23:00.677Z,3018
2022-12-17T11:24:00.678Z,3018
2022-12-17T11:25:00.817Z,3018
2022-12-17T11:26:00.712Z,3054.3
2022-12-17T11:27:00.831Z,3054.3
2022-12-17T11:28:00.681Z,3054.3
2022-12-17T11:29:00.829Z,3091.1
2022-12-17T11:30:00.855Z,3091.1
2022-12-17T11:31:00.770Z,3091.1
2022-12-17T11:32:00.765Z,3128.2
2022-12-17T11:33:00.701Z,3128.2
2022-12-17T11:34:00.688Z,3165.8
2022-12-17T11:35:00.851Z,3165.8
2022-12-17T11:36:00.770Z,3165.8
2022-12-17T11:37:00.763Z,3165.8
2022-12-17T11:38:00.836Z,3204.1
2022-12-17T11:39:00.859Z,3204.1
2022-12-17T11:40:00.748Z,3242.6
2022-12-17T11:41:00.756Z,3281.6
2022-12-17T11:42:00.783Z,3242.6
2022-12-17T11:43:00.755Z,3242.6
2022-12-17T11:44:00.883Z,3281.6
2022-12-17T11:45:00.845Z,3281.6
2022-12-17T11:46:00.926Z,3321.1
2022-12-17T11:47:00.858Z,3321.1
2022-12-17T11:48:00.808Z,3321.1
2022-12-17T11:49:00.896Z,3321.1
2022-12-17T11:50:00.855Z,3321.1
2022-12-17T11:51:00.891Z,3361
2022-12-17T11:52:00.808Z,3361
2022-12-17T11:53:00.722Z,3401.4
2022-12-17T11:54:00.845Z,3401.4
2022-12-17T11:55:00.847Z,3401.4
2022-12-17T11:56:00.878Z,3442.3
2022-12-17T11:57:00.835Z,3442.3
2022-12-17T11:58:00.857Z,3483.7
2022-12-17T11:59:00.777Z,3483.7
2022-12-17T12:00:03.775Z,3483.7
2022-12-17T12:01:00.863Z,3483.7
2022-12-17T12:02:00.915Z,3483.7
2022-12-17T12:03:01.119Z,3525.6
2022-12-17T12:04:00.852Z,3525.6
2022-12-17T12:05:00.794Z,3568
2022-12-17T12:06:00.772Z,3568
2022-12-17T12:07:00.743Z,3568
2022-12-17T12:08:00.760Z,3568
2022-12-17T12:09:00.808Z,3568
2022-12-17T12:10:00.851Z,3568
2022-12-17T12:11:00.935Z,3611.1
2022-12-17T12:12:00.726Z,3611.1
2022-12-17T12:13:00.802Z,3654.5
2022-12-17T12:14:00.724Z,3654.5
2022-12-17T12:15:00.729Z,3654.5
2022-12-17T12:16:00.796Z,3654.5
2022-12-17T12:17:00.736Z,3654.5
2022-12-17T12:18:00.732Z,3654.5
2022-12-17T12:19:00.755Z,3654.5
2022-12-17T12:20:00.734Z,3654.5
2022-12-17T12:21:00.742Z,3698.5
2022-12-17T12:22:00.736Z,3654.5
2022-12-17T12:23:00.732Z,3698.5
2022-12-17T12:24:00.752Z,3698.5
2022-12-17T12:25:00.767Z,3698.5
2022-12-17T12:26:00.756Z,3698.5
2022-12-17T12:27:00.769Z,3742.9
2022-12-17T12:28:00.739Z,3742.9
2022-12-17T12:29:00.754Z,3742.9
2022-12-17T12:30:00.759Z,3742.9
2022-12-17T12:31:00.789Z,3742.9
2022-12-17T12:32:00.824Z,3742.9
2022-12-17T12:33:03.221Z,3788
2022-12-17T12:34:00.745Z,3788
2022-12-17T12:35:00.774Z,3788
2022-12-17T12:36:00.753Z,3788
2022-12-17T12:37:00.749Z,3788
2022-12-17T12:38:00.752Z,3833.5
2022-12-17T12:39:00.787Z,3833.5
2022-12-17T12:40:00.775Z,3879.6
2022-12-17T12:41:00.794Z,3879.6
2022-12-17T12:42:00.764Z,3879.6
2022-12-17T12:43:00.757Z,3926.3
2022-12-17T12:44:00.785Z,3926.3
2022-12-17T12:45:00.772Z,3926.3
2022-12-17T12:46:00.814Z,3926.3
2022-12-17T12:47:00.770Z,3973.5
2022-12-17T12:48:00.764Z,3926.3
2022-12-17T12:49:00.764Z,3926.3
2022-12-17T12:50:00.784Z,3973.5
2022-12-17T12:51:00.804Z,4021.3
2022-12-17T12:52:00.797Z,4021.3
2022-12-17T12:53:00.774Z,4021.3
2022-12-17T12:54:00.794Z,4021.3
2022-12-17T12:55:00.798Z,4021.3
2022-12-17T12:56:00.795Z,4021.3
2022-12-17T12:57:00.768Z,4021.3
2022-12-17T12:58:00.767Z,4021.3
2022-12-17T12:59:00.771Z,4021.3
2022-12-17T13:00:00.812Z,4021.3
2022-12-17T13:01:00.866Z,4021.3
2022-12-17T13:02:01.016Z,4069.8
2022-12-17T13:03:00.923Z,4069.8
2022-12-17T13:04:00.804Z,4021.3
2022-12-17T13:05:00.798Z,4069.8
2022-12-17T13:06:00.776Z,4069.8
2022-12-17T13:07:00.781Z,4069.8
2022-12-17T13:08:00.779Z,4069.8
2022-12-17T13:09:00.801Z,4069.8
2022-12-17T13:10:00.799Z,4069.8
2022-12-17T13:11:00.798Z,4021.3
2022-12-17T13:12:00.801Z,4021.3
2022-12-17T13:13:00.783Z,4021.3